Flight Track Log - Related Links

Times and Time Zones

All times are in EDT time to prevent confusion due to time zone crossing. See the UCA5011 flight status page for this flight to view local times or setup timezone preferences in your user account.

Time Position Orientation Groundspeed Altitude Reporting Facility
EDT Latitude Longitude Course Direction KTS MPH feet Rate Location/Type
Tue 10:20:36 AM 38.2997 -81.5961 81° East 176 203 3,100  Level Indianapolis Center
Tue 10:21:38 AM 38.2825 -81.5428 112° Southeast 190 219 4,300 1,306 Climbing Indianapolis Center
Tue 10:22:40 AM 38.3097 -81.4869 58° Northeast 186 214 5,800 1,452 Climbing Indianapolis Center
Tue 10:23:42 AM 38.3347 -81.4300 61° Northeast 183 211 7,300 1,452 Climbing Indianapolis Center
Tue 10:24:44 AM 38.3592 -81.3728 61° Northeast 183 211 8,800 1,548 Climbing Indianapolis Center
Tue 10:25:00 AM 38.3624 -81.4846 81° East  Level FlightAware Approximate
Tue 10:25:46 AM 38.3894 -81.3025 61° Northeast 189 217 10,500  Level Indianapolis Center
Tue 10:26:48 AM 38.3983 -81.2403 80° East 182 209 11,900 1,403 Climbing Indianapolis Center
Tue 10:27:50 AM 38.4022 -81.1781 85° East 177 204 13,400 1,258 Climbing Indianapolis Center
Tue 10:28:52 AM 38.4092 -81.1178 82° East 174 200 14,500 1,129 Climbing Indianapolis Center
Tue 10:30:00 AM 38.4121 -81.0407 87° East  Level FlightAware Approximate
Tue 10:30:56 AM 38.4192 -80.9908 87° East 181 208 16,900  Level Indianapolis Center
Tue 10:31:58 AM 38.4261 -80.9064 84° East 203 234 17,000 48 Climbing Indianapolis Center
Tue 10:33:00 AM 38.4331 -80.8231 84° East 233 268 17,000 -48 Level Indianapolis Center
Tue 10:34:02 AM 38.4400 -80.7392 84° East 237 273 16,900  Descending Indianapolis Center
Tue 10:35:04 AM 38.4475 -80.6567 83° East 236 272 17,000  Climbing Indianapolis Center
Tue 10:36:06 AM 38.4542 -80.5711 84° East 241 277 16,900  Descending Indianapolis Center
Tue 10:37:08 AM 38.4608 -80.4856 84° East 244 281 17,000 48 Climbing Indianapolis Center
Tue 10:38:10 AM 38.4700 -80.3858 83° East 237 273 17,000 -48 Level Indianapolis Center
Tue 10:39:12 AM 38.4758 -80.3008 85° East 242 278 16,900 46 Descending Indianapolis Center
Tue 10:40:21 AM 38.4850 -80.2069 83° East 232 267 17,100 93 Climbing Washington Center
Tue 10:41:21 AM 38.4903 -80.1225 85° East 232 267 17,100 -50 Level Washington Center
Tue 10:42:22 AM 38.4953 -80.0458 85° East 232 267 17,000 -101 Descending Washington Center
Tue 10:43:20 AM 38.5019 -79.9744 83° East 227 261 16,900 -50 Descending Washington Center
Tue 10:44:21 AM 38.5092 -79.8900 84° East 227 261 16,900  Level Washington Center
Tue 10:45:22 AM 38.5164 -79.8083 84° East 232 267 16,900  Level Washington Center
Tue 10:46:20 AM 38.5233 -79.7236 84° East 232 267 16,900  Level Washington Center
Tue 10:47:20 AM 38.5286 -79.6311 86° East 232 267 16,900 50 Level Washington Center
Tue 10:48:21 AM 38.5333 -79.5492 86° East 232 267 17,000 49 Climbing Washington Center
Tue 10:49:22 AM 38.5403 -79.4672 84° East 232 267 17,000 -353 Level Washington Center
Tue 10:50:20 AM 38.5472 -79.3797 84° East 232 267 16,300 -857 Descending Washington Center
Tue 10:51:21 AM 38.5522 -79.2900 86° East 243 280 15,300 -1,033 Descending Washington Center
Tue 10:52:22 AM 38.5592 -79.1947 85° East 256 295 14,200 -1,059 Descending Washington Center
Tue 10:53:20 AM 38.5661 -79.1019 85° East 261 300 13,200 -1,017 Descending Washington Center
Tue 10:54:20 AM 38.5728 -79.0175 84° East 255 293 12,200 -992 Descending Washington Center
Tue 10:55:21 AM 38.5750 -78.9325 88° East 243 280 11,200 -1,041 Descending Washington Center
Tue 10:56:21 AM 38.5794 -78.8556 86° East 233 268 10,100 -1,041 Descending Washington Center
Tue 10:57:22 AM 38.5875 -78.7789 82° East 222 255 9,100 -942 Descending Washington Center
Tue 10:58:22 AM 38.5917 -78.7075 86° East 217 250 8,200 -763 Descending Washington Center
Tue 10:59:20 AM 38.5953 -78.6439 86° East 196 226 7,600 -508 Descending Washington Center
Tue 11:00:20 AM 38.5992 -78.5775 86° East 191 220 7,200 -298 Descending Washington Center
Tue 11:01:21 AM 38.6419 -78.5261 43° Northeast 180 207 7,000 -98 Descending Washington Center
Tue 11:02:22 AM 38.6622 -78.4658 67° East 180 207 7,000  Level Washington Center
Tue 11:03:22 AM 38.6806 -78.3972 71° East 180 207 7,000  Level Washington Center
Tue 11:04:20 AM 38.7233 -78.3483 42° Northeast 186 214 7,000 -101 Level Washington Center
Tue 11:05:21 AM 38.7725 -78.2969 39° Northeast 206 237 6,800 -492 Descending Washington Center
Tue 11:06:22 AM 38.8258 -78.2378 41° Northeast 232 267 6,000 -403 Descending Washington Center
Tue 11:07:20 AM 38.8647 -78.1750 51° Northeast 237 273 6,000  Level Washington Center
Tue 11:08:20 AM 38.8831 -78.0958 73° East 221 254 6,000  Level Washington Center
Tue 11:09:21 AM 38.9014 -78.0217 72° East 221 254 6,000  Level Washington Center
Tue 11:10:22 AM 38.9197 -77.9422 73° East 221 254 6,000  Level Washington Center
Tue 11:12:39 AM 39.0167 -77.8167 45° Northeast 230 265 6,000  Level Potomac TRACON
Tue 11:13:33 AM 39.0000 -77.7500 108° East 209 241 6,000  Level Potomac TRACON
Tue 11:14:33 AM 38.9500 -77.7000 142° Southeast 215 247 6,000 -150 Level Potomac TRACON
Tue 11:15:33 AM 38.9833 -77.6333 57° Northeast 226 260 5,700 -500 Descending Potomac TRACON
Tue 11:16:33 AM 39.0333 -77.6000 27° Northeast 224 258 5,000 -368 Descending Potomac TRACON
Tue 11:17:27 AM 39.0833 -77.5833 15° North 221 254 5,000  Level Potomac TRACON
Tue 11:18:21 AM 39.1500 -77.5667 11° North 240 276 5,000  Level Potomac TRACON
Tue 11:19:21 AM 39.2167 -77.5667 360° North 240 276 5,000  Level Potomac TRACON
Tue 11:20:21 AM 39.2833 -77.5833 349° North 246 283 5,000  Level Potomac TRACON
Tue 11:21:22 AM 39.3333 -77.5833 360° North 212 244 5,000  Level Potomac TRACON
Tue 11:22:22 AM 39.3667 -77.5500 38° Northeast 195 224 5,000  Level Potomac TRACON
Tue 11:23:16 AM 39.3500 -77.5000 113° Southeast 174 200 5,000  Level Potomac TRACON
Tue 11:24:16 AM 39.3000 -77.4833 166° South 176 203 5,000  Level Potomac TRACON
Tue 11:25:16 AM 39.2500 -77.4667 166° South 182 209 5,000 -100 Level Potomac TRACON
Tue 11:26:16 AM 39.2000 -77.4500 166° South 197 227 4,800 -600 Descending Potomac TRACON
Tue 11:27:16 AM 39.1500 -77.4500 180° South 186 214 3,800 -1,000 Descending Potomac TRACON

Login

Don't have an account? Register now (free) for customized features, flight alerts, and more!